sensor_id;sensor_type;location;lat;lon;timestamp;pressure;altitude;pressure_sealevel;temperature;humidity
68891;BME280;55932;48.702;8.884;2023-04-26T00:06:01;96150;;;6;70.5
68891;BME280;55932;48.702;8.884;2023-04-26T00:11:13;96140;;;5.9;71
68891;BME280;55932;48.702;8.884;2023-04-26T00:13:52;96140;;;5.8;71
68891;BME280;55932;48.702;8.884;2023-04-26T00:18:43;96150;;;5.6;71
68891;BME280;55932;48.702;8.884;2023-04-26T00:21:13;96150;;;5.6;71
68891;BME280;55932;48.702;8.884;2023-04-26T00:23:44;96150;;;5.5;71
68891;BME280;55932;48.702;8.884;2023-04-26T00:26:03;96140;;;5.4;71
68891;BME280;55932;48.702;8.884;2023-04-26T00:28:34;96150;;;5.4;71
68891;BME280;55932;48.702;8.884;2023-04-26T00:31:04;96140;;;5.4;71
68891;BME280;55932;48.702;8.884;2023-04-26T00:38:36;96140;;;5.3;71
68891;BME280;55932;48.702;8.884;2023-04-26T00:41:06;96140;;;5.2;71
68891;BME280;55932;48.702;8.884;2023-04-26T00:43:37;96140;;;5.1;71
68891;BME280;55932;48.702;8.884;2023-04-26T00:48:49;96150;;;5.1;71
68891;BME280;55932;48.702;8.884;2023-04-26T00:51:19;96140;;;5.2;71
68891;BME280;55932;48.702;8.884;2023-04-26T00:53:58;96150;;;5.3;71
68891;BME280;55932;48.702;8.884;2023-04-26T01:03:42;96150;;;5.5;70.5
68891;BME280;55932;48.702;8.884;2023-04-26T01:08:41;96150;;;5.2;71
68891;BME280;55932;48.702;8.884;2023-04-26T01:11:11;96140;;;5;71.5
68891;BME280;55932;48.702;8.884;2023-04-26T01:13:42;96150;;;4.9;72
68891;BME280;55932;48.702;8.884;2023-04-26T01:16:12;96140;;;4.8;71.5
68891;BME280;55932;48.702;8.884;2023-04-26T01:18:43;96140;;;4.8;71.5
68891;BME280;55932;48.702;8.884;2023-04-26T01:21:24;96140;;;4.8;71.5
68891;BME280;55932;48.702;8.884;2023-04-26T01:23:55;96140;;;4.9;71.5
68891;BME280;55932;48.702;8.884;2023-04-26T01:26:24;96140;;;4.9;71.5
68891;BME280;55932;48.702;8.884;2023-04-26T01:28:54;96140;;;4.9;71.5
68891;BME280;55932;48.702;8.884;2023-04-26T01:31:34;96150;;;5;71
68891;BME280;55932;48.702;8.884;2023-04-26T01:38:44;96150;;;5;71
68891;BME280;55932;48.702;8.884;2023-04-26T01:41:15;96140;;;4.9;71.5
68891;BME280;55932;48.702;8.884;2023-04-26T01:48:46;96140;;;4.5;72
68891;BME280;55932;48.702;8.884;2023-04-26T01:51:17;96140;;;4.3;72
68891;BME280;55932;48.702;8.884;2023-04-26T01:53:47;96130;;;4;72.5
68891;BME280;55932;48.702;8.884;2023-04-26T01:56:32;96130;;;3.9;72.5
68891;BME280;55932;48.702;8.884;2023-04-26T01:59:12;96130;;;3.7;72.5
68891;BME280;55932;48.702;8.884;2023-04-26T02:01:41;96130;;;3.6;72.5
68891;BME280;55932;48.702;8.884;2023-04-26T02:04:00;96140;;;3.4;73
68891;BME280;55932;48.702;8.884;2023-04-26T02:06:30;96140;;;3.4;73
68891;BME280;55932;48.702;8.884;2023-04-26T02:08:50;96140;;;3.4;72.5
68891;BME280;55932;48.702;8.884;2023-04-26T02:16:21;96140;;;3.2;72.5
68891;BME280;55932;48.702;8.884;2023-04-26T02:18:51;96150;;;3.2;72
68891;BME280;55932;48.702;8.884;2023-04-26T02:21:22;96150;;;3.3;72
68891;BME280;55932;48.702;8.884;2023-04-26T02:23:52;96150;;;3.3;72
68891;BME280;55932;48.702;8.884;2023-04-26T02:26:23;96150;;;3.4;72
68891;BME280;55932;48.702;8.884;2023-04-26T02:33:54;96150;;;3.7;71.5
68891;BME280;55932;48.702;8.884;2023-04-26T02:36:25;96150;;;3.8;71
68891;BME280;55932;48.702;8.884;2023-04-26T02:38:55;96140;;;3.9;71
68891;BME280;55932;48.702;8.884;2023-04-26T02:41:37;96150;;;3.9;71
68891;BME280;55932;48.702;8.884;2023-04-26T02:49:08;96150;;;3.7;71.5
68891;BME280;55932;48.702;8.884;2023-04-26T02:51:47;96150;;;3.7;71.5
68891;BME280;55932;48.702;8.884;2023-04-26T02:56:50;96150;;;3.6;71.5
68891;BME280;55932;48.702;8.884;2023-04-26T02:59:20;96150;;;3.6;71.5
68891;BME280;55932;48.702;8.884;2023-04-26T03:01:51;96150;;;3.6;71.5
68891;BME280;55932;48.702;8.884;2023-04-26T03:04:22;96150;;;3.6;71.5
68891;BME280;55932;48.702;8.884;2023-04-26T03:09:23;96150;;;3.6;71
68891;BME280;55932;48.702;8.884;2023-04-26T03:11:54;96150;;;3.5;71.5
68891;BME280;55932;48.702;8.884;2023-04-26T03:14:24;96150;;;3.5;71.5
68891;BME280;55932;48.702;8.884;2023-04-26T03:16:55;96150;;;3.4;71.5
68891;BME280;55932;48.702;8.884;2023-04-26T03:19:25;96150;;;3.4;72
68891;BME280;55932;48.702;8.884;2023-04-26T03:24:15;96150;;;3.2;72
68891;BME280;55932;48.702;8.884;2023-04-26T03:26:45;96150;;;3.2;71.5
68891;BME280;55932;48.702;8.884;2023-04-26T03:29:15;96140;;;3.1;71.5
68891;BME280;55932;48.702;8.884;2023-04-26T03:31:35;96140;;;3;71.5
68891;BME280;55932;48.702;8.884;2023-04-26T03:34:05;96150;;;2.9;72
68891;BME280;55932;48.702;8.884;2023-04-26T03:44:07;96140;;;2.2;72.5
68891;BME280;55932;48.702;8.884;2023-04-26T03:49:08;96140;;;2;73
68891;BME280;55932;48.702;8.884;2023-04-26T03:51:38;96140;;;1.9;73
68891;BME280;55932;48.702;8.884;2023-04-26T03:54:09;96150;;;1.9;73
68891;BME280;55932;48.702;8.884;2023-04-26T03:59:42;96150;;;2;72.5
68891;BME280;55932;48.702;8.884;2023-04-26T04:02:04;96150;;;2.1;72.5
68891;BME280;55932;48.702;8.884;2023-04-26T04:04:34;96150;;;2.2;72
68891;BME280;55932;48.702;8.884;2023-04-26T04:09:23;96150;;;2.1;72
68891;BME280;55932;48.702;8.884;2023-04-26T04:11:53;96150;;;2.1;72.5
68891;BME280;55932;48.702;8.884;2023-04-26T04:14:24;96150;;;2.1;72.5
68891;BME280;55932;48.702;8.884;2023-04-26T04:19:14;96150;;;2.1;72.5
68891;BME280;55932;48.702;8.884;2023-04-26T04:21:44;96150;;;2.2;72
68891;BME280;55932;48.702;8.884;2023-04-26T04:24:15;96150;;;2.2;72
68891;BME280;55932;48.702;8.884;2023-04-26T04:26:45;96150;;;2.3;72
68891;BME280;55932;48.702;8.884;2023-04-26T04:29:15;96150;;;2.2;72
68891;BME280;55932;48.702;8.884;2023-04-26T04:31:45;96160;;;2.3;72
68891;BME280;55932;48.702;8.884;2023-04-26T04:37:10;96150;;;2.5;72
68891;BME280;55932;48.702;8.884;2023-04-26T04:39:40;96160;;;2.6;72
68891;BME280;55932;48.702;8.884;2023-04-26T04:42:00;96150;;;2.6;72
68891;BME280;55932;48.702;8.884;2023-04-26T04:44:39;96160;;;2.8;72
68891;BME280;55932;48.702;8.884;2023-04-26T04:47:09;96160;;;2.9;71.5
68891;BME280;55932;48.702;8.884;2023-04-26T04:49:30;96160;;;3.1;71.5
68891;BME280;55932;48.702;8.884;2023-04-26T04:52:00;96150;;;3.2;71.5
68891;BME280;55932;48.702;8.884;2023-04-26T04:54:30;96160;;;3.2;71.5
68891;BME280;55932;48.702;8.884;2023-04-26T04:57:00;96160;;;3.2;71.5
68891;BME280;55932;48.702;8.884;2023-04-26T05:02:01;96170;;;3;72
68891;BME280;55932;48.702;8.884;2023-04-26T05:04:31;96170;;;2.9;72
68891;BME280;55932;48.702;8.884;2023-04-26T05:07:01;96170;;;2.9;72
68891;BME280;55932;48.702;8.884;2023-04-26T05:09:41;96170;;;2.8;72
68891;BME280;55932;48.702;8.884;2023-04-26T05:14:20;96180;;;2.8;72.5
68891;BME280;55932;48.702;8.884;2023-04-26T05:16:51;96180;;;2.8;72.5
68891;BME280;55932;48.702;8.884;2023-04-26T05:19:21;96190;;;2.9;72.5
68891;BME280;55932;48.702;8.884;2023-04-26T05:21:52;96190;;;3;72
68891;BME280;55932;48.702;8.884;2023-04-26T05:24:22;96190;;;3.1;72
68891;BME280;55932;48.702;8.884;2023-04-26T05:26:53;96190;;;3.2;72
68891;BME280;55932;48.702;8.884;2023-04-26T05:29:24;96190;;;3.2;72
68891;BME280;55932;48.702;8.884;2023-04-26T05:31:54;96190;;;3.3;72
68891;BME280;55932;48.702;8.884;2023-04-26T05:34:24;96200;;;3.5;72
68891;BME280;55932;48.702;8.884;2023-04-26T05:36:55;96200;;;3.8;71.5
68891;BME280;55932;48.702;8.884;2023-04-26T05:41:56;96210;;;4.4;71
68891;BME280;55932;48.702;8.884;2023-04-26T05:49:48;96210;;;4.8;71
68891;BME280;55932;48.702;8.884;2023-04-26T05:52:08;96210;;;5.1;70.5
68891;BME280;55932;48.702;8.884;2023-04-26T05:54:39;96200;;;5.3;70.5
68891;BME280;55932;48.702;8.884;2023-04-26T05:57:09;96200;;;5.5;70.5
68891;BME280;55932;48.702;8.884;2023-04-26T05:59:39;96200;;;5.6;70.5
68891;BME280;55932;48.702;8.884;2023-04-26T06:01:58;96200;;;5.7;70.5
68891;BME280;55932;48.702;8.884;2023-04-26T06:04:29;96200;;;5.8;70.5
68891;BME280;55932;48.702;8.884;2023-04-26T06:12:01;96210;;;6.3;70
68891;BME280;55932;48.702;8.884;2023-04-26T06:14:31;96210;;;6.2;70.5
68891;BME280;55932;48.702;8.884;2023-04-26T06:17:02;96210;;;6.4;70.5
68891;BME280;55932;48.702;8.884;2023-04-26T06:19:32;96200;;;7.2;68.5
68891;BME280;55932;48.702;8.884;2023-04-26T06:22:02;96210;;;7.5;68
68891;BME280;55932;48.702;8.884;2023-04-26T06:29:45;96210;;;8.4;68.5
68891;BME280;55932;48.702;8.884;2023-04-26T06:32:15;96210;;;10.7;63
68891;BME280;55932;48.702;8.884;2023-04-26T06:34:46;96210;;;10;65
68891;BME280;55932;48.702;8.884;2023-04-26T06:37:16;96210;;;9.6;67
68891;BME280;55932;48.702;8.884;2023-04-26T06:42:17;96210;;;10.5;65
68891;BME280;55932;48.702;8.884;2023-04-26T06:44:56;96200;;;11;64.5
68891;BME280;55932;48.702;8.884;2023-04-26T06:52:17;96210;;;11.1;65.5
68891;BME280;55932;48.702;8.884;2023-04-26T06:54:47;96200;;;11.6;64
68891;BME280;55932;48.702;8.884;2023-04-26T06:57:18;96200;;;13.9;59
68891;BME280;55932;48.702;8.884;2023-04-26T06:59:37;96200;;;14.7;57.5
68891;BME280;55932;48.702;8.884;2023-04-26T07:02:07;96190;;;15.1;57
68891;BME280;55932;48.702;8.884;2023-04-26T07:09:39;96180;;;18.9;53
68891;BME280;55932;48.702;8.884;2023-04-26T07:12:10;96180;;;20.3;51.5
68891;BME280;55932;48.702;8.884;2023-04-26T07:14:40;96180;;;19.7;54
68891;BME280;55932;48.702;8.884;2023-04-26T07:17:11;96180;;;20.1;54
68891;BME280;55932;48.702;8.884;2023-04-26T07:19:41;96180;;;18;58
68891;BME280;55932;48.702;8.884;2023-04-26T07:22:23;96180;;;14.7;64.5
68891;BME280;55932;48.702;8.884;2023-04-26T07:24:53;96180;;;16.9;59.5
68891;BME280;55932;48.702;8.884;2023-04-26T07:27:23;96170;;;17.9;57.5
68891;BME280;55932;48.702;8.884;2023-04-26T07:29:53;96170;;;18.5;56.5
68891;BME280;55932;48.702;8.884;2023-04-26T07:37:13;96170;;;18;58
68891;BME280;55932;48.702;8.884;2023-04-26T07:42:14;96170;;;16.4;60
68891;BME280;55932;48.702;8.884;2023-04-26T07:44:46;96160;;;16.2;61.5
68891;BME280;55932;48.702;8.884;2023-04-26T07:47:15;96160;;;17.5;59
68891;BME280;55932;48.702;8.884;2023-04-26T07:49:46;96160;;;17.3;60
68891;BME280;55932;48.702;8.884;2023-04-26T07:52:16;96170;;;14.6;65.5
68891;BME280;55932;48.702;8.884;2023-04-26T07:54:46;96170;;;14.8;65
68891;BME280;55932;48.702;8.884;2023-04-26T07:57:17;96170;;;17.8;58
68891;BME280;55932;48.702;8.884;2023-04-26T08:05:08;96180;;;18.1;58.5
68891;BME280;55932;48.702;8.884;2023-04-26T08:10:00;96190;;;16.8;61.5
68891;BME280;55932;48.702;8.884;2023-04-26T08:12:30;96180;;;17.4;60.5
68891;BME280;55932;48.702;8.884;2023-04-26T08:15:00;96190;;;15.4;64.5
68891;BME280;55932;48.702;8.884;2023-04-26T08:19:49;96190;;;13.3;67.5
68891;BME280;55932;48.702;8.884;2023-04-26T08:22:20;96200;;;12.8;67.5
68891;BME280;55932;48.702;8.884;2023-04-26T08:29:51;96200;;;12.4;67.5
68891;BME280;55932;48.702;8.884;2023-04-26T08:32:22;96200;;;12.3;68.5
68891;BME280;55932;48.702;8.884;2023-04-26T08:34:53;96200;;;12.4;69
68891;BME280;55932;48.702;8.884;2023-04-26T08:37:23;96200;;;12.7;68.5
68891;BME280;55932;48.702;8.884;2023-04-26T08:40:05;96200;;;12.7;68
68891;BME280;55932;48.702;8.884;2023-04-26T08:42:38;96210;;;12.3;68
68891;BME280;55932;48.702;8.884;2023-04-26T08:45:05;96200;;;12.3;68
68891;BME280;55932;48.702;8.884;2023-04-26T08:50:19;96210;;;12.6;67.5
68891;BME280;55932;48.702;8.884;2023-04-26T08:52:49;96200;;;12.7;67
68891;BME280;55932;48.702;8.884;2023-04-26T08:55:18;96200;;;12.7;67
68891;BME280;55932;48.702;8.884;2023-04-26T09:02:39;96190;;;16.4;62.5
68891;BME280;55932;48.702;8.884;2023-04-26T09:05:08;96180;;;19.3;59
68891;BME280;55932;48.702;8.884;2023-04-26T09:07:39;96180;;;20.5;57.5
68891;BME280;55932;48.702;8.884;2023-04-26T09:10:09;96180;;;19.6;59
68891;BME280;55932;48.702;8.884;2023-04-26T09:12:39;96180;;;18.6;58.5
68891;BME280;55932;48.702;8.884;2023-04-26T09:15:19;96180;;;17.6;60.5
68891;BME280;55932;48.702;8.884;2023-04-26T09:17:39;96180;;;15.7;64
68891;BME280;55932;48.702;8.884;2023-04-26T09:22:49;96190;;;13;67.5
68891;BME280;55932;48.702;8.884;2023-04-26T09:25:26;96190;;;12.7;67.5
68891;BME280;55932;48.702;8.884;2023-04-26T09:27:42;96190;;;12.4;68
68891;BME280;55932;48.702;8.884;2023-04-26T09:30:14;96190;;;12.4;68.5
68891;BME280;55932;48.702;8.884;2023-04-26T09:32:48;96180;;;12;69
68891;BME280;55932;48.702;8.884;2023-04-26T09:35:17;96180;;;12;69
68891;BME280;55932;48.702;8.884;2023-04-26T09:42:40;96180;;;12.9;68
68891;BME280;55932;48.702;8.884;2023-04-26T09:45:10;96170;;;13.2;68
68891;BME280;55932;48.702;8.884;2023-04-26T09:47:40;96180;;;13.1;68
68891;BME280;55932;48.702;8.884;2023-04-26T09:52:30;96170;;;13.3;67.5
68891;BME280;55932;48.702;8.884;2023-04-26T09:55:00;96170;;;13.2;67.5
68891;BME280;55932;48.702;8.884;2023-04-26T09:57:30;96170;;;13.1;68
68891;BME280;55932;48.702;8.884;2023-04-26T10:00:01;96170;;;13.8;67
68891;BME280;55932;48.702;8.884;2023-04-26T10:02:31;96170;;;14.7;65.5
68891;BME280;55932;48.702;8.884;2023-04-26T10:05:02;96170;;;14.6;65.5
68891;BME280;55932;48.702;8.884;2023-04-26T10:07:32;96160;;;14.6;65.5
68891;BME280;55932;48.702;8.884;2023-04-26T10:10:03;96160;;;14;65.5
68891;BME280;55932;48.702;8.884;2023-04-26T10:12:33;96160;;;13.8;66.5
68891;BME280;55932;48.702;8.884;2023-04-26T10:17:35;96150;;;17;64.5
68891;BME280;55932;48.702;8.884;2023-04-26T10:30:55;96150;;;14.1;67.5
68891;BME280;55932;48.702;8.884;2023-04-26T10:33:10;96150;;;14.5;66.5
68891;BME280;55932;48.702;8.884;2023-04-26T10:35:30;96140;;;17.2;63.5
68891;BME280;55932;48.702;8.884;2023-04-26T10:38:08;96140;;;20.3;58.5
68891;BME280;55932;48.702;8.884;2023-04-26T10:40:32;96140;;;21;60
68891;BME280;55932;48.702;8.884;2023-04-26T10:43:26;96140;;;18.8;62
68891;BME280;55932;48.702;8.884;2023-04-26T10:45:33;96140;;;16.8;64.5
68891;BME280;55932;48.702;8.884;2023-04-26T10:48:12;96140;;;15.4;66
68891;BME280;55932;48.702;8.884;2023-04-26T10:50:21;96140;;;14.6;67.5
68891;BME280;55932;48.702;8.884;2023-04-26T10:53:04;96130;;;14.2;67
68891;BME280;55932;48.702;8.884;2023-04-26T10:58:44;96140;;;13.5;68.5
68891;BME280;55932;48.702;8.884;2023-04-26T11:00:52;96140;;;13.3;68
68891;BME280;55932;48.702;8.884;2023-04-26T11:05:47;96150;;;12.6;68.5
68891;BME280;55932;48.702;8.884;2023-04-26T11:13:07;96150;;;12.6;68
68891;BME280;55932;48.702;8.884;2023-04-26T11:18:08;96140;;;12.1;69
68891;BME280;55932;48.702;8.884;2023-04-26T11:23:09;96120;;;12.8;68.5
68891;BME280;55932;48.702;8.884;2023-04-26T11:28:20;96110;;;13;68
68891;BME280;55932;48.702;8.884;2023-04-26T11:30:41;96110;;;13.4;68.5
68891;BME280;55932;48.702;8.884;2023-04-26T11:35:33;96110;;;14.7;66.5
68891;BME280;55932;48.702;8.884;2023-04-26T11:38:03;96090;;;15.1;66.5
68891;BME280;55932;48.702;8.884;2023-04-26T11:40:32;96090;;;15.7;65.5
68891;BME280;55932;48.702;8.884;2023-04-26T11:50:44;96080;;;18;65
68891;BME280;55932;48.702;8.884;2023-04-26T11:53:24;96080;;;17.8;65.5
68891;BME280;55932;48.702;8.884;2023-04-26T11:55:34;96070;;;17;65.5
68891;BME280;55932;48.702;8.884;2023-04-26T11:58:08;96070;;;18.1;63.5
68891;BME280;55932;48.702;8.884;2023-04-26T12:00:34;96060;;;18.9;63
68891;BME280;55932;48.702;8.884;2023-04-26T12:03:05;96080;;;18.1;64.5
68891;BME280;55932;48.702;8.884;2023-04-26T12:05:35;96080;;;17.7;65.5
68891;BME280;55932;48.702;8.884;2023-04-26T12:08:04;96080;;;17.3;65
68891;BME280;55932;48.702;8.884;2023-04-26T12:15:45;96080;;;14.9;66.5
68891;BME280;55932;48.702;8.884;2023-04-26T12:20:36;96070;;;15.1;67.5
68891;BME280;55932;48.702;8.884;2023-04-26T12:23:09;96080;;;15.4;68.5
68891;BME280;55932;48.702;8.884;2023-04-26T12:28:08;96080;;;15.8;67
68891;BME280;55932;48.702;8.884;2023-04-26T12:30:37;96070;;;17.6;66.5
68891;BME280;55932;48.702;8.884;2023-04-26T12:33:12;96070;;;17.8;66
68891;BME280;55932;48.702;8.884;2023-04-26T12:35:37;96070;;;16.3;67.5
68891;BME280;55932;48.702;8.884;2023-04-26T12:38:17;96080;;;16.1;67.5
68891;BME280;55932;48.702;8.884;2023-04-26T12:42:56;96060;;;16.9;65
68891;BME280;55932;48.702;8.884;2023-04-26T12:45:26;96060;;;17.3;64.5
68891;BME280;55932;48.702;8.884;2023-04-26T12:47:56;96060;;;18.1;64.5
68891;BME280;55932;48.702;8.884;2023-04-26T12:50:31;96060;;;18.2;64.5
68891;BME280;55932;48.702;8.884;2023-04-26T12:52:58;96050;;;18.8;64.5
68891;BME280;55932;48.702;8.884;2023-04-26T12:55:28;96060;;;17.9;65
68891;BME280;55932;48.702;8.884;2023-04-26T13:05:31;96060;;;16.4;66
68891;BME280;55932;48.702;8.884;2023-04-26T13:08:01;96060;;;15.9;66.5
68891;BME280;55932;48.702;8.884;2023-04-26T13:10:43;96060;;;15.6;67
68891;BME280;55932;48.702;8.884;2023-04-26T13:13:13;96050;;;15.4;68
68891;BME280;55932;48.702;8.884;2023-04-26T13:18:14;96050;;;16.6;67.5
68891;BME280;55932;48.702;8.884;2023-04-26T13:20:44;96050;;;16.7;67
68891;BME280;55932;48.702;8.884;2023-04-26T13:23:14;96050;;;16.3;68
68891;BME280;55932;48.702;8.884;2023-04-26T13:30:56;96060;;;16.8;65.5
68891;BME280;55932;48.702;8.884;2023-04-26T13:36:06;96060;;;16.1;65.5
68891;BME280;55932;48.702;8.884;2023-04-26T13:38:37;96050;;;15.6;66
68891;BME280;55932;48.702;8.884;2023-04-26T13:43:18;96050;;;15.9;67
68891;BME280;55932;48.702;8.884;2023-04-26T13:45:57;96050;;;16.3;67
68891;BME280;55932;48.702;8.884;2023-04-26T13:48:18;96050;;;16.2;68.5
68891;BME280;55932;48.702;8.884;2023-04-26T13:50:47;96040;;;17.6;66.5
68891;BME280;55932;48.702;8.884;2023-04-26T13:55:38;96040;;;17;65.5
68891;BME280;55932;48.702;8.884;2023-04-26T13:58:08;96040;;;16.4;65.5
68891;BME280;55932;48.702;8.884;2023-04-26T14:00:39;96040;;;15.9;66
68891;BME280;55932;48.702;8.884;2023-04-26T14:03:09;96040;;;15.4;66.5
68891;BME280;55932;48.702;8.884;2023-04-26T14:05:40;96040;;;15.4;67
68891;BME280;55932;48.702;8.884;2023-04-26T14:08:10;96040;;;15.4;66.5
68891;BME280;55932;48.702;8.884;2023-04-26T14:10:41;96040;;;14.9;67.5
68891;BME280;55932;48.702;8.884;2023-04-26T14:13:11;96040;;;15;66.5
68891;BME280;55932;48.702;8.884;2023-04-26T14:15:42;96040;;;14.7;67
68891;BME280;55932;48.702;8.884;2023-04-26T14:26:04;96030;;;14.3;67.5
68891;BME280;55932;48.702;8.884;2023-04-26T14:28:25;96030;;;14.7;67
68891;BME280;55932;48.702;8.884;2023-04-26T14:30:55;96030;;;14.4;67.5
68891;BME280;55932;48.702;8.884;2023-04-26T14:33:25;96030;;;15.3;68
68891;BME280;55932;48.702;8.884;2023-04-26T14:38:15;96030;;;14.7;67
68891;BME280;55932;48.702;8.884;2023-04-26T14:40:45;96030;;;14;68
68891;BME280;55932;48.702;8.884;2023-04-26T14:45:46;96040;;;13.5;68.5
68891;BME280;55932;48.702;8.884;2023-04-26T14:48:17;96040;;;13.4;68.5
68891;BME280;55932;48.702;8.884;2023-04-26T14:50:47;96040;;;13.5;69
68891;BME280;55932;48.702;8.884;2023-04-26T14:55:59;96040;;;13.8;68.5
68891;BME280;55932;48.702;8.884;2023-04-26T14:58:29;96040;;;13.5;69
68891;BME280;55932;48.702;8.884;2023-04-26T15:00:59;96030;;;13.5;69
68891;BME280;55932;48.702;8.884;2023-04-26T15:03:29;96030;;;13.7;68
68891;BME280;55932;48.702;8.884;2023-04-26T15:05:59;96030;;;13.9;68
68891;BME280;55932;48.702;8.884;2023-04-26T15:08:30;96030;;;14.2;68.5
68891;BME280;55932;48.702;8.884;2023-04-26T15:13:19;96030;;;14.3;68
68891;BME280;55932;48.702;8.884;2023-04-26T15:15:49;96030;;;13.8;67.5
68891;BME280;55932;48.702;8.884;2023-04-26T15:18:20;96020;;;13.6;68
68891;BME280;55932;48.702;8.884;2023-04-26T15:20:50;96020;;;13.5;68.5
68891;BME280;55932;48.702;8.884;2023-04-26T15:25:51;96010;;;15.4;68
68891;BME280;55932;48.702;8.884;2023-04-26T15:28:22;96000;;;16.6;67
68891;BME280;55932;48.702;8.884;2023-04-26T15:38:24;96000;;;18.1;64.5
68891;BME280;55932;48.702;8.884;2023-04-26T15:41:17;96010;;;17.5;64.5
68891;BME280;55932;48.702;8.884;2023-04-26T15:46:27;96010;;;16.1;65.5
68891;BME280;55932;48.702;8.884;2023-04-26T15:53:51;96010;;;13.7;68
68891;BME280;55932;48.702;8.884;2023-04-26T15:56:21;96010;;;13.1;68.5
68891;BME280;55932;48.702;8.884;2023-04-26T15:58:52;96020;;;12.8;68.5
68891;BME280;55932;48.702;8.884;2023-04-26T16:06:23;96020;;;14.4;68
68891;BME280;55932;48.702;8.884;2023-04-26T16:08:53;96020;;;14.9;68
68891;BME280;55932;48.702;8.884;2023-04-26T16:13:43;96020;;;15.7;67.5
68891;BME280;55932;48.702;8.884;2023-04-26T16:18:44;96020;;;15.6;67.5
68891;BME280;55932;48.702;8.884;2023-04-26T16:21:14;96020;;;14.7;67.5
68891;BME280;55932;48.702;8.884;2023-04-26T16:23:33;96020;;;13.9;67.5
68891;BME280;55932;48.702;8.884;2023-04-26T16:31:05;96020;;;15.5;67
68891;BME280;55932;48.702;8.884;2023-04-26T16:33:35;96020;;;15.4;67.5
68891;BME280;55932;48.702;8.884;2023-04-26T16:36:06;96020;;;14.7;67
68891;BME280;55932;48.702;8.884;2023-04-26T16:38:36;96020;;;13.3;67.5
68891;BME280;55932;48.702;8.884;2023-04-26T16:41:07;96020;;;12.5;68.5
68891;BME280;55932;48.702;8.884;2023-04-26T16:43:38;96030;;;12.1;69
68891;BME280;55932;48.702;8.884;2023-04-26T16:46:19;96030;;;11.9;69
68891;BME280;55932;48.702;8.884;2023-04-26T16:48:52;96030;;;11.9;69.5
68891;BME280;55932;48.702;8.884;2023-04-26T16:51:20;96030;;;11.7;69
68891;BME280;55932;48.702;8.884;2023-04-26T16:56:11;96030;;;11.6;69.5
68891;BME280;55932;48.702;8.884;2023-04-26T16:58:39;96030;;;11.5;69.5
68891;BME280;55932;48.702;8.884;2023-04-26T17:01:10;96030;;;11.4;69.5
68891;BME280;55932;48.702;8.884;2023-04-26T17:03:40;96030;;;11.3;69.5
68891;BME280;55932;48.702;8.884;2023-04-26T17:06:10;96030;;;11.2;69.5
68891;BME280;55932;48.702;8.884;2023-04-26T17:11:23;96030;;;11.1;69.5
68891;BME280;55932;48.702;8.884;2023-04-26T17:13:53;96030;;;10.9;70
68891;BME280;55932;48.702;8.884;2023-04-26T17:16:23;96030;;;10.8;70
68891;BME280;55932;48.702;8.884;2023-04-26T17:18:53;96030;;;10.7;70
68891;BME280;55932;48.702;8.884;2023-04-26T17:21:23;96040;;;10.6;70
68891;BME280;55932;48.702;8.884;2023-04-26T17:23:53;96040;;;10.4;70.5
68891;BME280;55932;48.702;8.884;2023-04-26T17:28:42;96040;;;10.1;70.5
68891;BME280;55932;48.702;8.884;2023-04-26T17:31:13;96040;;;10;70.5
68891;BME280;55932;48.702;8.884;2023-04-26T17:33:43;96050;;;10.1;70.5
68891;BME280;55932;48.702;8.884;2023-04-26T17:36:14;96050;;;10.1;70.5
68891;BME280;55932;48.702;8.884;2023-04-26T17:38:44;96050;;;10.2;70.5
68891;BME280;55932;48.702;8.884;2023-04-26T17:41:15;96050;;;10.3;70.5
68891;BME280;55932;48.702;8.884;2023-04-26T17:43:46;96060;;;10.5;70.5
68891;BME280;55932;48.702;8.884;2023-04-26T17:46:16;96060;;;10.6;70
68891;BME280;55932;48.702;8.884;2023-04-26T17:48:46;96050;;;10.6;70
68891;BME280;55932;48.702;8.884;2023-04-26T17:56:18;96070;;;10.1;70.5
68891;BME280;55932;48.702;8.884;2023-04-26T18:06:43;96080;;;9.7;71
68891;BME280;55932;48.702;8.884;2023-04-26T18:09:32;96080;;;9.6;71
68891;BME280;55932;48.702;8.884;2023-04-26T18:11:44;96080;;;9.6;71
68891;BME280;55932;48.702;8.884;2023-04-26T18:14:15;96090;;;9.6;71
68891;BME280;55932;48.702;8.884;2023-04-26T18:19:04;96080;;;9.5;70.5
68891;BME280;55932;48.702;8.884;2023-04-26T18:21:34;96080;;;9.5;70.5
68891;BME280;55932;48.702;8.884;2023-04-26T18:31:46;96110;;;9.2;70.5
68891;BME280;55932;48.702;8.884;2023-04-26T18:34:26;96110;;;9.2;70.5
68891;BME280;55932;48.702;8.884;2023-04-26T18:36:59;96110;;;9.2;70.5
68891;BME280;55932;48.702;8.884;2023-04-26T18:39:19;96110;;;9.3;70.5
68891;BME280;55932;48.702;8.884;2023-04-26T18:41:49;96110;;;9.3;70.5
68891;BME280;55932;48.702;8.884;2023-04-26T18:46:28;96110;;;9.2;70.5
68891;BME280;55932;48.702;8.884;2023-04-26T18:54:00;96120;;;9;70.5
68891;BME280;55932;48.702;8.884;2023-04-26T18:56:30;96130;;;9;70.5
68891;BME280;55932;48.702;8.884;2023-04-26T18:59:00;96130;;;9;70.5
68891;BME280;55932;48.702;8.884;2023-04-26T19:01:31;96130;;;9.1;70.5
68891;BME280;55932;48.702;8.884;2023-04-26T19:04:20;96130;;;9.1;70
68891;BME280;55932;48.702;8.884;2023-04-26T19:06:43;96140;;;9;70.5
68891;BME280;55932;48.702;8.884;2023-04-26T19:09:13;96140;;;9;70.5
68891;BME280;55932;48.702;8.884;2023-04-26T19:11:32;96140;;;9;70
68891;BME280;55932;48.702;8.884;2023-04-26T19:14:03;96150;;;9.1;70
68891;BME280;55932;48.702;8.884;2023-04-26T19:21:34;96160;;;8.9;70
68891;BME280;55932;48.702;8.884;2023-04-26T19:24:05;96160;;;8.9;70
68891;BME280;55932;48.702;8.884;2023-04-26T19:26:36;96160;;;8.8;70
68891;BME280;55932;48.702;8.884;2023-04-26T19:36:49;96160;;;8.7;70.5
68891;BME280;55932;48.702;8.884;2023-04-26T19:39:19;96170;;;8.8;70
68891;BME280;55932;48.702;8.884;2023-04-26T19:41:49;96170;;;8.7;70
68891;BME280;55932;48.702;8.884;2023-04-26T19:49:09;96180;;;8.6;70
68891;BME280;55932;48.702;8.884;2023-04-26T19:51:42;96170;;;8.6;70
68891;BME280;55932;48.702;8.884;2023-04-26T19:56:40;96170;;;8.5;70
68891;BME280;55932;48.702;8.884;2023-04-26T20:04:12;96180;;;8.4;70
68891;BME280;55932;48.702;8.884;2023-04-26T20:06:42;96180;;;8.3;70
68891;BME280;55932;48.702;8.884;2023-04-26T20:09:13;96180;;;8.2;70
68891;BME280;55932;48.702;8.884;2023-04-26T20:11:43;96180;;;8.1;70
68891;BME280;55932;48.702;8.884;2023-04-26T20:16:56;96180;;;8;70.5
68891;BME280;55932;48.702;8.884;2023-04-26T20:19:26;96180;;;7.9;70.5